createdAt,value
2023-04-12T00:00:17.851Z,7.40
2023-04-12T00:02:46.763Z,7.00
2023-04-12T00:05:15.767Z,7.30
2023-04-12T00:07:46.896Z,6.87
2023-04-12T00:10:17.081Z,6.67
2023-04-12T00:12:46.443Z,7.27
2023-04-12T00:15:16.422Z,6.70
2023-04-12T00:17:47.064Z,6.93
2023-04-12T00:20:16.691Z,7.00
2023-04-12T00:22:46.014Z,6.40
2023-04-12T00:25:16.402Z,7.10
2023-04-12T00:27:45.299Z,6.87
2023-04-12T00:30:14.367Z,6.83
2023-04-12T00:32:44.873Z,7.13
2023-04-12T00:35:13.645Z,7.10
2023-04-12T00:37:42.268Z,6.67
2023-04-12T00:40:12.309Z,7.70
2023-04-12T00:42:42.511Z,7.03
2023-04-12T00:45:12.198Z,6.40
2023-04-12T00:47:42.992Z,6.40
2023-04-12T00:50:13.101Z,6.30
2023-04-12T00:52:41.928Z,6.00
2023-04-12T00:55:11.248Z,6.13
2023-04-12T00:57:42.299Z,6.57
2023-04-12T01:00:13.663Z,6.40
2023-04-12T01:02:47.176Z,6.50
2023-04-12T01:05:22.041Z,6.03
2023-04-12T01:08:12.185Z,6.97
2023-04-12T01:10:47.508Z,7.00
2023-04-12T01:13:30.005Z,7.33
2023-04-12T01:16:09.113Z,6.83
2023-04-12T01:18:42.563Z,7.10
2023-04-12T01:21:19.564Z,7.17
2023-04-12T01:24:02.880Z,6.90
2023-04-12T01:26:43.205Z,7.63
2023-04-12T01:29:15.566Z,7.33
2023-04-12T01:31:53.253Z,7.37
2023-04-12T01:34:26.236Z,7.20
2023-04-12T01:36:56.498Z,7.33
2023-04-12T01:39:25.364Z,7.13
2023-04-12T01:41:54.134Z,7.57
2023-04-12T01:44:26.000Z,7.17
2023-04-12T01:46:55.060Z,7.63
2023-04-12T01:49:32.158Z,7.30
2023-04-12T01:52:04.967Z,7.57
2023-04-12T01:54:39.812Z,7.43
2023-04-12T01:57:09.523Z,6.87
2023-04-12T01:59:42.566Z,7.03
2023-04-12T02:02:12.678Z,6.93
2023-04-12T02:04:43.448Z,6.63
2023-04-12T02:07:12.597Z,6.90
2023-04-12T02:09:41.370Z,7.43
2023-04-12T02:12:10.750Z,7.00
2023-04-12T02:14:40.924Z,6.83
2023-04-12T02:17:09.831Z,6.70
2023-04-12T02:19:39.323Z,6.80
2023-04-12T02:22:08.467Z,6.60
2023-04-12T02:24:37.207Z,6.43
2023-04-12T02:27:06.074Z,6.40
2023-04-12T02:29:36.171Z,6.80
2023-04-12T02:32:06.604Z,6.00
2023-04-12T02:34:36.833Z,6.30
2023-04-12T02:37:27.552Z,6.83
2023-04-12T02:39:57.093Z,6.33
2023-04-12T02:42:27.011Z,6.40
2023-04-12T02:44:55.694Z,6.27
2023-04-12T02:47:29.194Z,6.73
2023-04-12T02:50:00.528Z,6.30
2023-04-12T02:52:30.733Z,6.70
2023-04-12T02:55:06.830Z,7.67
2023-04-12T02:57:35.738Z,7.23
2023-04-12T03:00:12.026Z,6.67
2023-04-12T03:02:47.691Z,7.40
2023-04-12T03:05:22.387Z,7.07
2023-04-12T03:07:52.635Z,7.23
2023-04-12T03:10:26.772Z,7.57
2023-04-12T03:13:03.204Z,8.00
2023-04-12T03:15:37.923Z,7.30
2023-04-12T03:18:08.309Z,7.53
2023-04-12T03:20:47.871Z,7.07
2023-04-12T03:23:17.598Z,7.43
2023-04-12T03:25:50.908Z,7.87
2023-04-12T03:28:37.740Z,7.37
2023-04-12T03:31:08.899Z,6.90
2023-04-12T03:33:44.955Z,7.60
2023-04-12T03:36:27.115Z,7.13
2023-04-12T03:39:10.525Z,7.70
2023-04-12T03:41:40.408Z,7.57
2023-04-12T03:44:10.103Z,7.43
2023-04-12T03:46:39.246Z,6.93
2023-04-12T03:49:13.268Z,7.67
2023-04-12T03:51:43.235Z,7.80
2023-04-12T03:54:13.891Z,7.57
2023-04-12T03:56:55.038Z,7.53
2023-04-12T03:59:29.496Z,7.67
2023-04-12T04:01:58.696Z,7.40
2023-04-12T04:04:30.928Z,7.17
2023-04-12T04:07:04.097Z,7.43
2023-04-12T04:09:40.960Z,7.77
2023-04-12T04:12:11.272Z,7.63
2023-04-12T04:14:44.548Z,7.77
2023-04-12T04:17:19.173Z,7.03
2023-04-12T04:19:51.381Z,8.20
2023-04-12T04:22:21.717Z,8.43
2023-04-12T04:24:53.178Z,7.80
2023-04-12T04:27:22.307Z,7.20
2023-04-12T04:29:54.026Z,8.00
2023-04-12T04:32:23.376Z,7.60
2023-04-12T04:35:00.188Z,6.77
2023-04-12T04:37:37.963Z,7.63
2023-04-12T04:40:09.580Z,8.17
2023-04-12T04:42:42.950Z,8.13
2023-04-12T04:45:14.709Z,7.63
2023-04-12T04:47:46.538Z,8.00
2023-04-12T04:50:16.916Z,9.07
2023-04-12T04:52:45.771Z,9.53
2023-04-12T04:55:17.585Z,8.40
2023-04-12T04:57:48.059Z,8.13
2023-04-12T05:00:18.992Z,8.83
2023-04-12T05:02:55.349Z,8.23
2023-04-12T05:05:28.080Z,7.50
2023-04-12T05:08:14.783Z,8.33
2023-04-12T05:10:45.132Z,8.00
2023-04-12T05:13:13.982Z,9.17
2023-04-12T05:15:42.723Z,9.27
2023-04-12T05:18:11.453Z,9.00
2023-04-12T05:20:41.678Z,8.87
2023-04-12T05:23:10.414Z,8.33
2023-04-12T05:25:44.792Z,9.13
2023-04-12T05:28:14.386Z,8.57
2023-04-12T05:30:43.820Z,7.87
2023-04-12T05:33:14.642Z,9.63
2023-04-12T05:35:48.821Z,9.50
2023-04-12T05:38:17.642Z,8.63
2023-04-12T05:40:50.384Z,10.00
2023-04-12T05:43:23.914Z,9.73
2023-04-12T05:45:52.844Z,9.00
2023-04-12T05:48:24.634Z,9.60
2023-04-12T05:50:57.262Z,9.73
2023-04-12T05:53:29.866Z,8.73
2023-04-12T05:56:01.864Z,8.90
2023-04-12T05:58:31.052Z,8.80
2023-04-12T06:01:00.811Z,9.40
2023-04-12T06:03:30.694Z,8.93
2023-04-12T06:06:06.675Z,9.20
2023-04-12T06:08:36.649Z,8.97
2023-04-12T06:11:05.942Z,9.20
2023-04-12T06:13:34.560Z,8.80
2023-04-12T06:16:03.492Z,8.57
2023-04-12T06:18:33.257Z,9.10
2023-04-12T06:21:01.866Z,9.60
2023-04-12T06:23:32.306Z,9.30
2023-04-12T06:26:01.137Z,8.80
2023-04-12T06:28:30.191Z,8.90
2023-04-12T06:30:58.959Z,8.80
2023-04-12T06:33:29.336Z,8.83
2023-04-12T06:35:58.573Z,10.07
2023-04-12T06:38:27.311Z,10.50
2023-04-12T06:40:57.479Z,10.47
2023-04-12T06:43:26.258Z,9.93
2023-04-12T06:45:57.097Z,10.70
2023-04-12T06:48:25.763Z,10.97
2023-04-12T06:50:54.468Z,10.67
2023-04-12T06:53:23.118Z,10.43
2023-04-12T06:55:51.924Z,9.37
2023-04-12T06:58:21.985Z,10.57
2023-04-12T07:00:51.083Z,12.83
2023-04-12T07:03:19.985Z,11.53
2023-04-12T07:05:48.768Z,10.67
2023-04-12T07:08:17.397Z,11.07
2023-04-12T07:10:46.101Z,9.87
2023-04-12T07:13:15.345Z,9.43
2023-04-12T07:15:46.613Z,9.23
2023-04-12T07:18:15.227Z,8.70
2023-04-12T07:20:44.308Z,9.17
2023-04-12T07:23:12.843Z,9.73
2023-04-12T07:25:41.628Z,9.23
2023-04-12T07:28:10.755Z,9.83
2023-04-12T07:30:40.400Z,9.53
2023-04-12T07:33:18.969Z,9.17
2023-04-12T07:35:48.650Z,9.43
2023-04-12T07:38:17.366Z,9.30
2023-04-12T07:40:49.831Z,8.93
2023-04-12T07:43:19.071Z,8.87
2023-04-12T07:45:48.009Z,9.17
2023-04-12T07:48:18.015Z,9.47
2023-04-12T07:50:46.944Z,9.83
2023-04-12T07:53:20.927Z,8.50
2023-04-12T07:55:51.817Z,9.13
2023-04-12T07:58:24.862Z,10.03
2023-04-12T08:00:54.338Z,9.50
2023-04-12T08:03:24.601Z,9.60
2023-04-12T08:05:54.314Z,9.50
2023-04-12T08:08:23.638Z,10.57
2023-04-12T08:10:53.192Z,9.03
2023-04-12T08:13:22.154Z,9.47
2023-04-12T08:15:50.825Z,9.70
2023-04-12T08:18:19.630Z,9.23
2023-04-12T08:20:49.621Z,9.27
2023-04-12T08:23:19.112Z,8.73
2023-04-12T08:25:47.807Z,8.57
2023-04-12T08:28:16.760Z,9.53
2023-04-12T08:30:45.581Z,8.93
2023-04-12T08:33:14.380Z,9.53
2023-04-12T08:35:43.126Z,8.80
2023-04-12T08:38:13.338Z,8.97
2023-04-12T08:40:43.439Z,9.33
2023-04-12T08:43:13.383Z,8.10
2023-04-12T08:45:42.265Z,8.83
2023-04-12T08:48:12.020Z,7.50
2023-04-12T08:50:43.678Z,7.80
2023-04-12T08:53:14.073Z,6.77
2023-04-12T08:55:45.426Z,7.60
2023-04-12T08:58:16.232Z,7.10
2023-04-12T09:00:46.282Z,5.67
2023-04-12T09:03:15.068Z,6.40
2023-04-12T09:05:43.954Z,6.17
2023-04-12T09:08:14.084Z,5.97
2023-04-12T09:10:42.927Z,6.10
2023-04-12T09:13:11.581Z,4.93
2023-04-12T09:15:50.148Z,8.70
2023-04-12T09:18:20.446Z,4.93
2023-04-12T09:20:49.252Z,4.57
2023-04-12T09:23:20.969Z,4.10
2023-04-12T09:25:52.762Z,4.17
2023-04-12T09:28:26.917Z,5.10
2023-04-12T09:30:56.956Z,4.73
2023-04-12T09:33:35.066Z,5.17
2023-04-12T09:36:04.966Z,5.73
2023-04-12T09:38:36.916Z,6.93
2023-04-12T09:41:20.746Z,8.17
2023-04-12T09:43:50.102Z,5.50
2023-04-12T09:46:18.823Z,3.90
2023-04-12T09:48:52.144Z,4.90
2023-04-12T09:51:29.568Z,4.60
2023-04-12T09:54:01.547Z,4.50
2023-04-12T09:56:32.273Z,3.43
2023-04-12T09:59:04.099Z,4.53
2023-04-12T10:01:36.831Z,4.30
2023-04-12T10:04:08.679Z,3.67
2023-04-12T10:06:38.339Z,3.73
2023-04-12T10:09:09.010Z,4.27
2023-04-12T10:11:41.858Z,3.90
2023-04-12T10:14:11.819Z,3.90
2023-04-12T10:16:42.758Z,4.10
2023-04-12T10:19:14.129Z,4.27
2023-04-12T10:21:43.061Z,3.90
2023-04-12T10:24:13.155Z,4.40
2023-04-12T10:26:44.271Z,4.70
2023-04-12T10:29:28.938Z,4.20
2023-04-12T10:31:59.046Z,4.03
2023-04-12T10:34:31.835Z,3.27
2023-04-12T10:37:01.689Z,2.93
2023-04-12T10:39:48.259Z,3.80
2023-04-12T10:42:18.355Z,2.50
2023-04-12T10:44:47.248Z,2.37
2023-04-12T10:47:16.275Z,3.23
2023-04-12T10:50:21.325Z,2.60
2023-04-12T10:53:26.519Z,3.20
2023-04-12T10:55:56.674Z,2.93
2023-04-12T10:58:56.588Z,3.27
2023-04-12T11:01:26.357Z,3.83
2023-04-12T11:04:16.822Z,3.83
2023-04-12T11:06:59.046Z,3.40
2023-04-12T11:09:48.636Z,3.70
2023-04-12T11:12:29.282Z,4.10
2023-04-12T11:15:02.568Z,4.77
2023-04-12T11:17:58.201Z,4.67
2023-04-12T11:20:28.450Z,4.57
2023-04-12T11:22:57.718Z,4.17
2023-04-12T11:25:27.813Z,4.53
2023-04-12T11:27:58.052Z,4.80
2023-04-12T11:30:30.964Z,6.40
2023-04-12T11:32:59.711Z,4.80
2023-04-12T11:35:30.480Z,5.47
2023-04-12T11:37:59.292Z,6.50
2023-04-12T11:40:28.829Z,5.40
2023-04-12T11:42:59.542Z,4.77
2023-04-12T11:45:29.444Z,5.30
2023-04-12T11:47:58.505Z,4.63
2023-04-12T11:50:31.379Z,4.97
2023-04-12T11:53:12.399Z,8.00
2023-04-12T11:55:41.170Z,4.20
2023-04-12T11:58:11.238Z,3.90
2023-04-12T12:00:42.297Z,3.73
2023-04-12T12:03:11.231Z,3.80
2023-04-12T12:05:41.548Z,4.10
2023-04-12T12:08:10.801Z,3.50
2023-04-12T12:10:55.414Z,4.23
2023-04-12T12:13:45.521Z,4.07
2023-04-12T12:16:14.536Z,3.87
2023-04-12T12:18:43.901Z,3.30
2023-04-12T12:21:14.508Z,3.37
2023-04-12T12:23:44.983Z,3.40
2023-04-12T12:26:21.946Z,3.93
2023-04-12T12:28:53.550Z,3.90
2023-04-12T12:31:23.744Z,4.13
2023-04-12T12:33:56.827Z,4.70
2023-04-12T12:36:32.779Z,4.23
2023-04-12T12:39:07.919Z,4.60
2023-04-12T12:41:37.443Z,4.67
2023-04-12T12:44:08.173Z,4.73
2023-04-12T12:49:08.913Z,4.60
2023-04-12T12:51:37.642Z,3.87
2023-04-12T12:54:06.363Z,3.90
2023-04-12T12:56:35.934Z,3.53
2023-04-12T12:59:04.809Z,4.10
2023-04-12T13:01:34.907Z,3.77
2023-04-12T13:04:03.787Z,4.00
2023-04-12T13:06:32.635Z,3.97
2023-04-12T13:09:01.657Z,3.90
2023-04-12T13:11:30.542Z,3.50
2023-04-12T13:13:59.317Z,3.53
2023-04-12T13:16:28.223Z,2.90
2023-04-12T13:18:58.596Z,3.50
2023-04-12T13:21:27.737Z,2.73
2023-04-12T13:23:56.346Z,2.90
2023-04-12T13:26:25.964Z,3.80
2023-04-12T13:28:54.738Z,3.57
2023-04-12T13:31:23.448Z,5.17
2023-04-12T13:33:52.373Z,3.63
2023-04-12T13:36:22.523Z,3.13
2023-04-12T13:38:51.651Z,2.87
2023-04-12T13:41:20.605Z,2.90
2023-04-12T13:43:49.483Z,2.43
2023-04-12T13:46:18.116Z,2.67
2023-04-12T13:48:46.844Z,2.37
2023-04-12T13:51:15.543Z,2.67
2023-04-12T13:53:45.843Z,2.30
2023-04-12T13:56:15.955Z,2.20
2023-04-12T13:58:44.702Z,2.17
2023-04-12T14:01:14.194Z,1.93
2023-04-12T14:03:42.933Z,2.10
2023-04-12T14:06:11.697Z,2.93
2023-04-12T14:08:40.648Z,2.37
2023-04-12T14:11:10.700Z,1.93
2023-04-12T14:13:39.334Z,1.83
2023-04-12T14:16:08.801Z,1.87
2023-04-12T14:18:37.653Z,2.17
2023-04-12T14:21:07.368Z,1.80
2023-04-12T14:23:36.123Z,1.97
2023-04-12T14:26:04.883Z,2.03
2023-04-12T14:28:35.790Z,2.07
2023-04-12T14:31:06.405Z,2.17
2023-04-12T14:33:35.614Z,4.17
2023-04-12T14:36:05.483Z,2.13
2023-04-12T14:38:34.301Z,3.00
2023-04-12T14:41:07.935Z,4.03
2023-04-12T14:43:37.937Z,2.53
2023-04-12T14:46:07.073Z,3.20
2023-04-12T14:48:35.765Z,2.50
2023-04-12T14:51:04.747Z,2.40
2023-04-12T14:53:33.499Z,2.60
2023-04-12T14:56:02.689Z,3.10
2023-04-12T14:58:31.834Z,2.27
2023-04-12T15:01:01.907Z,2.53
2023-04-12T15:03:33.355Z,2.60
2023-04-12T15:06:02.258Z,2.10
2023-04-12T15:08:30.917Z,2.17
2023-04-12T15:10:59.630Z,2.43
2023-04-12T15:13:33.469Z,2.20
2023-04-12T15:16:04.194Z,2.30
2023-04-12T15:18:32.899Z,2.23
2023-04-12T15:21:03.088Z,3.10
2023-04-12T15:23:33.924Z,1.90
2023-04-12T15:26:03.346Z,2.40
2023-04-12T15:28:34.001Z,2.20
2023-04-12T15:31:04.609Z,2.20
2023-04-12T15:33:35.263Z,1.60
2023-04-12T15:36:05.063Z,4.30
2023-04-12T15:38:33.839Z,4.13
2023-04-12T15:41:03.041Z,1.90
2023-04-12T15:43:31.718Z,1.97
2023-04-12T15:46:01.590Z,1.93
2023-04-12T15:48:31.870Z,1.60
2023-04-12T15:51:00.984Z,2.17
2023-04-12T15:53:29.606Z,1.80
2023-04-12T15:55:58.415Z,1.40
2023-04-12T15:58:28.216Z,1.60
2023-04-12T16:00:57.201Z,1.50
2023-04-12T16:03:26.999Z,2.17
2023-04-12T16:05:57.697Z,2.40
2023-04-12T16:08:27.390Z,1.70
2023-04-12T16:10:56.170Z,1.57
2023-04-12T16:13:24.722Z,1.60
2023-04-12T16:15:53.423Z,3.40
2023-04-12T16:18:22.095Z,2.40
2023-04-12T16:20:52.118Z,1.93
2023-04-12T16:23:22.546Z,1.60
2023-04-12T16:25:51.462Z,1.70
2023-04-12T16:28:20.618Z,1.80
2023-04-12T16:30:50.165Z,1.80
2023-04-12T16:33:18.991Z,1.70
2023-04-12T16:35:47.678Z,1.70
2023-04-12T16:38:17.760Z,3.83
2023-04-12T16:40:48.214Z,5.37
2023-04-12T16:43:17.045Z,3.73
2023-04-12T16:45:46.323Z,3.50
2023-04-12T16:48:15.618Z,2.57
2023-04-12T16:50:47.357Z,2.20
2023-04-12T16:53:16.818Z,2.33
2023-04-12T16:55:47.821Z,4.70
2023-04-12T16:58:17.167Z,8.70
2023-04-12T17:00:46.325Z,3.40
2023-04-12T17:03:16.102Z,2.90
2023-04-12T17:05:45.970Z,2.63
2023-04-12T17:08:15.716Z,2.97
2023-04-12T17:10:44.789Z,2.60
2023-04-12T17:13:19.473Z,20.23
2023-04-12T17:15:49.081Z,27.93
2023-04-12T17:18:17.885Z,18.10
2023-04-12T17:20:47.243Z,12.80
2023-04-12T17:23:17.409Z,11.53
2023-04-12T17:25:46.530Z,7.93
2023-04-12T17:28:16.602Z,8.77
2023-04-12T17:30:46.116Z,5.47
2023-04-12T17:33:18.328Z,5.70
2023-04-12T17:35:47.782Z,6.30
2023-04-12T17:38:16.557Z,5.40
2023-04-12T17:40:45.181Z,4.70
2023-04-12T17:43:13.978Z,4.50
2023-04-12T17:45:44.181Z,4.80
2023-04-12T17:48:14.910Z,4.53
2023-04-12T17:50:45.288Z,3.90
2023-04-12T17:53:14.064Z,3.10
2023-04-12T17:55:42.780Z,4.63
2023-04-12T17:58:11.455Z,4.80
2023-04-12T18:00:40.098Z,4.70
2023-04-12T18:03:13.340Z,4.10
2023-04-12T18:05:43.058Z,4.77
2023-04-12T18:08:11.680Z,4.67
2023-04-12T18:10:40.437Z,5.00
2023-04-12T18:13:09.667Z,5.50
2023-04-12T18:15:39.121Z,5.00
2023-04-12T18:18:09.477Z,5.07
2023-04-12T18:20:38.204Z,4.87
2023-04-12T18:23:07.145Z,4.80
2023-04-12T18:25:36.148Z,5.20
2023-04-12T18:28:05.364Z,5.00
2023-04-12T18:30:34.456Z,5.30
2023-04-12T18:33:05.660Z,6.10
2023-04-12T18:35:35.805Z,6.17
2023-04-12T18:38:04.626Z,6.23
2023-04-12T18:40:36.996Z,6.13
2023-04-12T18:43:05.802Z,6.63
2023-04-12T18:45:38.966Z,6.97
2023-04-12T18:48:08.593Z,6.60
2023-04-12T18:50:39.770Z,6.27
2023-04-12T18:53:09.278Z,6.60
2023-04-12T18:55:37.941Z,6.40
2023-04-12T18:58:07.084Z,5.70
2023-04-12T19:00:36.629Z,5.73
2023-04-12T19:03:05.533Z,5.63
2023-04-12T19:05:35.507Z,5.00
2023-04-12T19:08:05.898Z,5.37
2023-04-12T19:10:34.798Z,5.73
2023-04-12T19:13:03.438Z,6.30
2023-04-12T19:15:32.644Z,5.23
2023-04-12T19:18:01.497Z,6.10
2023-04-12T19:20:30.443Z,6.33
2023-04-12T19:22:59.398Z,6.53
2023-04-12T19:25:31.669Z,6.40
2023-04-12T19:28:01.215Z,6.40
2023-04-12T19:30:32.700Z,6.43
2023-04-12T19:33:01.397Z,5.87
2023-04-12T19:35:33.025Z,5.73
2023-04-12T19:38:01.934Z,5.47
2023-04-12T19:40:32.082Z,5.43
2023-04-12T19:43:00.877Z,5.30
2023-04-12T19:45:30.030Z,5.17
2023-04-12T19:47:58.739Z,5.17
2023-04-12T19:50:27.385Z,6.03
2023-04-12T19:52:56.516Z,5.40
2023-04-12T19:55:26.043Z,5.33
2023-04-12T19:57:56.769Z,6.07
2023-04-12T20:00:25.442Z,5.90
2023-04-12T20:02:55.351Z,5.60
2023-04-12T20:05:24.406Z,6.10
2023-04-12T20:07:56.078Z,6.60
2023-04-12T20:10:25.194Z,6.13
2023-04-12T20:12:55.346Z,7.07
2023-04-12T20:15:24.070Z,6.97
2023-04-12T20:17:53.301Z,7.17
2023-04-12T20:20:22.126Z,7.30
2023-04-12T20:22:52.863Z,7.57
2023-04-12T20:25:21.661Z,7.03
2023-04-12T20:27:52.407Z,7.77
2023-04-12T20:30:26.201Z,7.60
2023-04-12T20:32:55.214Z,8.13
2023-04-12T20:35:24.018Z,8.37
2023-04-12T20:37:53.148Z,8.17
2023-04-12T20:40:23.390Z,8.13
2023-04-12T20:42:52.175Z,8.03
2023-04-12T20:45:23.476Z,8.40
2023-04-12T20:47:52.478Z,8.63
2023-04-12T20:50:23.030Z,9.40
2023-04-12T20:52:52.502Z,9.17
2023-04-12T20:55:22.716Z,9.37
2023-04-12T20:57:55.687Z,9.27
2023-04-12T21:00:25.984Z,9.93
2023-04-12T21:02:54.925Z,10.13
2023-04-12T21:05:24.249Z,10.83
2023-04-12T21:07:52.828Z,11.37
2023-04-12T21:10:22.322Z,10.87
2023-04-12T21:12:51.782Z,11.70
2023-04-12T21:15:22.458Z,10.90
2023-04-12T21:17:52.939Z,11.13
2023-04-12T21:20:22.378Z,11.73
2023-04-12T21:22:52.385Z,11.70
2023-04-12T21:25:21.608Z,11.23
2023-04-12T21:27:51.001Z,12.13
2023-04-12T21:30:20.539Z,12.77
2023-04-12T21:32:49.365Z,11.53
2023-04-12T21:35:21.098Z,12.47
2023-04-12T21:37:50.361Z,13.47
2023-04-12T21:40:19.254Z,13.80
2023-04-12T21:42:47.995Z,14.17
2023-04-12T21:45:16.768Z,13.80
2023-04-12T21:47:45.580Z,15.70
2023-04-12T21:50:14.716Z,15.03
2023-04-12T21:52:45.618Z,16.20
2023-04-12T21:55:14.572Z,16.20
2023-04-12T21:57:43.360Z,16.93
2023-04-12T22:00:13.229Z,16.97
2023-04-12T22:02:42.080Z,16.83
2023-04-12T22:05:11.492Z,16.40
2023-04-12T22:07:41.442Z,17.27
2023-04-12T22:10:12.486Z,17.13
2023-04-12T22:12:41.470Z,17.00
2023-04-12T22:15:11.974Z,17.63
2023-04-12T22:17:41.290Z,17.73
2023-04-12T22:20:11.096Z,18.07
2023-04-12T22:22:40.085Z,17.97
2023-04-12T22:25:12.922Z,18.40
2023-04-12T22:27:42.205Z,17.70
2023-04-12T22:30:11.568Z,18.43
2023-04-12T22:32:40.598Z,19.80
2023-04-12T22:35:10.422Z,19.13
2023-04-12T22:37:41.328Z,18.50
2023-04-12T22:40:13.680Z,20.70
2023-04-12T22:42:47.473Z,18.70
2023-04-12T22:45:17.543Z,19.10
2023-04-12T22:47:47.667Z,18.70
2023-04-12T22:50:16.676Z,18.90
2023-04-12T22:52:45.522Z,18.73
2023-04-12T22:55:17.156Z,18.97
2023-04-12T22:57:47.144Z,20.17
2023-04-12T23:00:18.113Z,18.70
2023-04-12T23:02:48.556Z,18.60
2023-04-12T23:05:17.650Z,18.83
2023-04-12T23:07:46.510Z,18.73
2023-04-12T23:10:16.690Z,19.13
2023-04-12T23:12:46.555Z,18.77
2023-04-12T23:15:15.298Z,18.57
2023-04-12T23:17:44.100Z,18.80
2023-04-12T23:20:14.737Z,17.97
2023-04-12T23:22:57.896Z,19.77
2023-04-12T23:25:39.170Z,18.60
2023-04-12T23:28:13.459Z,19.23
2023-04-12T23:30:44.823Z,20.10
2023-04-12T23:33:13.601Z,19.17
2023-04-12T23:35:42.668Z,19.37
2023-04-12T23:38:15.481Z,18.03
2023-04-12T23:40:46.825Z,19.10
2023-04-12T23:43:15.514Z,19.13
2023-04-12T23:45:44.292Z,19.50
2023-04-12T23:48:13.087Z,19.10
2023-04-12T23:50:41.940Z,18.40
2023-04-12T23:53:11.019Z,18.97
2023-04-12T23:55:39.988Z,18.60
2023-04-12T23:58:10.588Z,20.70
